Time;durP1;ratioP1;P1;durP2;ratioP2;P2;SDS_P1;SDS_P2;PMS_P1;PMS_P2;Temp;Humidity;BMP_temperature;BMP_pressure;BME280_temperature;BME280_humidity;BME280_pressure;Samples;Min_cycle;Max_cycle;Signal;HPM_P1;HPM_P2
2021/08/07 00:01:43;;;;;;;2.30;2.10;;;;;;;;;;5054634;28;20830;-69
2021/08/07 00:04:09;;;;;;;3.63;1.87;;;;;;;;;;5054737;28;20419;-69
2021/08/07 00:06:35;;;;;;;2.40;2.20;;;;;;;;;;5054022;28;20779;-70
2021/08/07 00:09:01;;;;;;;2.20;1.63;;;;;;;;;;5054892;28;20419;-69
2021/08/07 00:11:27;;;;;;;2.90;1.87;;;;;;;;;;5054333;28;20822;-68
2021/08/07 00:16:57;;;;;;;4.27;1.90;;;;;;;;;;5054019;28;20900;-68
2021/08/07 00:19:23;;;;;;;2.57;2.27;;;;;;;;;;5054697;28;20437;-69
2021/08/07 00:21:49;;;;;;;4.77;1.53;;;;;;;;;;5054109;28;20414;-70
2021/08/07 00:24:16;;;;;;;2.40;2.20;;;;;;;;;;5053915;28;20434;-68
2021/08/07 00:26:42;;;;;;;2.87;2.07;;;;;;;;;;5052500;28;20894;-69
2021/08/07 00:32:11;;;;;;;5.67;2.87;;;;;;;;;;5054541;28;20418;-69
2021/08/07 00:34:37;;;;;;;3.40;2.30;;;;;;;;;;5054309;28;20479;-69
2021/08/07 00:37:05;;;;;;;2.90;1.80;;;;;;;;;;5053039;28;20843;-69
2021/08/07 00:39:31;;;;;;;5.87;2.17;;;;;;;;;;5054537;28;20411;-69
2021/08/07 00:41:57;;;;;;;5.20;2.50;;;;;;;;;;5054212;28;20905;-69
2021/08/07 00:44:23;;;;;;;2.30;2.10;;;;;;;;;;5053868;28;20431;-69
2021/08/07 00:46:49;;;;;;;3.73;2.40;;;;;;;;;;5054030;28;20415;-70
2021/08/07 00:49:15;;;;;;;3.03;2.63;;;;;;;;;;5054069;28;20426;-68
2021/08/07 00:51:41;;;;;;;7.07;2.73;;;;;;;;;;5054380;28;20421;-69
2021/08/07 00:54:07;;;;;;;2.70;2.27;;;;;;;;;;5053987;28;20510;-69
2021/08/07 00:56:33;;;;;;;5.93;2.10;;;;;;;;;;5054265;28;20430;-68
2021/08/07 01:02:04;;;;;;;2.77;2.13;;;;;;;;;;5053754;28;20461;-69
2021/08/07 01:04:37;;;;;;;3.57;2.30;;;;;;;;;;5053896;28;20491;-70
2021/08/07 01:07:05;;;;;;;3.70;2.80;;;;;;;;;;5053862;28;20411;-70
2021/08/07 01:09:57;;;;;;;4.50;2.50;;;;;;;;;;5053897;28;20438;-69
2021/08/07 01:12:47;;;;;;;4.57;2.10;;;;;;;;;;5052332;28;20478;-70
2021/08/07 01:15:15;;;;;;;2.90;2.70;;;;;;;;;;5053333;28;20411;-69
2021/08/07 01:17:44;;;;;;;2.30;2.10;;;;;;;;;;5053465;28;20885;-68
2021/08/07 01:20:25;;;;;;;2.37;2.03;;;;;;;;;;5053809;28;20417;-69
2021/08/07 01:22:57;;;;;;;1.97;1.77;;;;;;;;;;5053438;28;20608;-69
2021/08/07 01:25:24;;;;;;;2.23;2.03;;;;;;;;;;5053688;28;20411;-70
2021/08/07 01:27:50;;;;;;;4.93;2.17;;;;;;;;;;5053421;28;20415;-69
2021/08/07 01:30:18;;;;;;;3.17;1.77;;;;;;;;;;5053242;28;20457;-69
2021/08/07 01:32:45;;;;;;;3.23;2.30;;;;;;;;;;5052941;28;20438;-69
2021/08/07 01:35:12;;;;;;;4.13;2.27;;;;;;;;;;5053342;28;20467;-68
2021/08/07 01:37:39;;;;;;;5.00;2.77;;;;;;;;;;5053405;28;20419;-70
2021/08/07 01:40:05;;;;;;;8.00;2.83;;;;;;;;;;5053302;28;20442;-71
2021/08/07 01:42:31;;;;;;;6.50;2.70;;;;;;;;;;5053298;28;20455;-70
2021/08/07 01:44:57;;;;;;;3.73;2.23;;;;;;;;;;5053217;28;20745;-70
2021/08/07 01:47:25;;;;;;;8.70;3.43;;;;;;;;;;5053524;28;20490;-70
2021/08/07 01:49:51;;;;;;;4.20;2.73;;;;;;;;;;5053111;28;20411;-70
2021/08/07 01:52:18;;;;;;;5.63;3.10;;;;;;;;;;5052927;28;20425;-69
2021/08/07 01:54:46;;;;;;;5.17;3.07;;;;;;;;;;5053054;28;20490;-69
2021/08/07 01:57:13;;;;;;;5.00;3.13;;;;;;;;;;5052706;28;20421;-69
2021/08/07 02:02:43;;;;;;;2.93;2.40;;;;;;;;;;5052831;28;21038;-69
2021/08/07 02:05:10;;;;;;;3.50;2.40;;;;;;;;;;5053163;28;20451;-69
2021/08/07 02:07:36;;;;;;;6.00;2.60;;;;;;;;;;5052690;28;20502;-70
2021/08/07 02:10:04;;;;;;;10.87;2.50;;;;;;;;;;5052855;28;20450;-69
2021/08/07 02:12:30;;;;;;;4.20;2.90;;;;;;;;;;5052684;28;20898;-69
2021/08/07 02:18:00;;;;;;;4.33;2.67;;;;;;;;;;5052752;28;20410;-69
2021/08/07 02:20:27;;;;;;;4.70;2.50;;;;;;;;;;5052759;28;20435;-69
2021/08/07 02:22:53;;;;;;;3.23;2.80;;;;;;;;;;5052475;28;20505;-68
2021/08/07 02:25:20;;;;;;;2.87;2.57;;;;;;;;;;5052890;28;20821;-69
2021/08/07 02:27:47;;;;;;;2.80;2.20;;;;;;;;;;5052586;28;20447;-70
2021/08/07 02:30:13;;;;;;;4.60;2.90;;;;;;;;;;5056828;28;20874;-69
2021/08/07 02:32:39;;;;;;;3.83;2.73;;;;;;;;;;5056259;28;20421;-69
2021/08/07 02:35:10;;;;;;;4.60;2.80;;;;;;;;;;5055239;28;20466;-69
2021/08/07 02:37:36;;;;;;;4.90;3.13;;;;;;;;;;5056735;28;20423;-69
2021/08/07 02:40:03;;;;;;;3.13;2.30;;;;;;;;;;5056545;28;20889;-70
2021/08/07 02:42:30;;;;;;;4.90;3.43;;;;;;;;;;5056356;28;20462;-69
2021/08/07 02:48:00;;;;;;;4.40;2.00;;;;;;;;;;5056499;28;20436;-69
2021/08/07 02:50:27;;;;;;;3.27;2.63;;;;;;;;;;5056726;28;20411;-69
2021/08/07 02:52:53;;;;;;;2.13;1.90;;;;;;;;;;5056265;28;20414;-70
2021/08/07 02:55:20;;;;;;;3.73;2.70;;;;;;;;;;5056379;28;20409;-69
2021/08/07 02:57:46;;;;;;;4.40;2.40;;;;;;;;;;5056220;28;20410;-70
2021/08/07 03:03:15;;;;;;;3.10;2.50;;;;;;;;;;5056131;28;20466;-69
2021/08/07 03:05:42;;;;;;;4.13;2.43;;;;;;;;;;5054663;28;20439;-70
2021/08/07 03:08:08;;;;;;;3.73;2.50;;;;;;;;;;5055866;28;20418;-69
2021/08/07 03:10:34;;;;;;;5.60;2.33;;;;;;;;;;5056391;28;20419;-69
2021/08/07 03:13:02;;;;;;;3.57;2.30;;;;;;;;;;5055956;28;20919;-69
2021/08/07 03:15:29;;;;;;;2.60;2.40;;;;;;;;;;5055980;28;20915;-69
2021/08/07 03:17:55;;;;;;;4.13;2.00;;;;;;;;;;5055854;28;20484;-70
2021/08/07 03:20:30;;;;;;;3.80;2.00;;;;;;;;;;5055752;28;20422;-69
2021/08/07 03:22:56;;;;;;;2.73;2.00;;;;;;;;;;5052836;28;21198;-69
2021/08/07 03:25:22;;;;;;;4.90;2.10;;;;;;;;;;5055791;28;20494;-69
2021/08/07 03:27:48;;;;;;;2.97;2.40;;;;;;;;;;5055755;28;20877;-69
2021/08/07 03:33:18;;;;;;;5.93;2.90;;;;;;;;;;5055459;28;20464;-69
2021/08/07 03:35:44;;;;;;;3.33;2.57;;;;;;;;;;5055278;28;20474;-70
2021/08/07 03:38:10;;;;;;;3.17;2.77;;;;;;;;;;5055609;28;20419;-70
2021/08/07 03:40:35;;;;;;;6.83;2.57;;;;;;;;;;5055256;28;20959;-69
2021/08/07 03:43:01;;;;;;;3.70;2.60;;;;;;;;;;5055271;28;20470;-69
2021/08/07 03:48:31;;;;;;;4.20;2.60;;;;;;;;;;5055354;28;20453;-69
2021/08/07 03:50:57;;;;;;;7.83;2.00;;;;;;;;;;5055494;28;20426;-70
2021/08/07 03:53:23;;;;;;;2.70;2.10;;;;;;;;;;5055272;28;20750;-68
2021/08/07 03:55:49;;;;;;;3.60;2.40;;;;;;;;;;5055177;28;20419;-69
2021/08/07 04:04:04;;;;;;;3.00;1.60;;;;;;;;;;5054764;28;20512;-69
2021/08/07 04:06:30;;;;;;;3.13;2.13;;;;;;;;;;5054926;28;20876;-69
2021/08/07 04:08:56;;;;;;;2.77;2.30;;;;;;;;;;5054702;28;20455;-69
2021/08/07 04:11:22;;;;;;;4.30;2.47;;;;;;;;;;5054751;28;20901;-69
2021/08/07 04:13:48;;;;;;;5.40;2.00;;;;;;;;;;5054750;28;20418;-69
2021/08/07 04:16:14;;;;;;;2.53;2.30;;;;;;;;;;5055041;28;20472;-69
2021/08/07 04:18:40;;;;;;;3.70;1.97;;;;;;;;;;5054631;28;20506;-68
2021/08/07 04:21:06;;;;;;;3.23;2.03;;;;;;;;;;5054708;28;20411;-69
2021/08/07 04:23:32;;;;;;;2.93;2.73;;;;;;;;;;5054502;28;20978;-69
2021/08/07 04:25:58;;;;;;;2.80;1.70;;;;;;;;;;5054599;28;20403;-68
2021/08/07 04:34:12;;;;;;;3.73;2.13;;;;;;;;;;5054134;28;20422;-68
2021/08/07 04:36:39;;;;;;;2.30;2.10;;;;;;;;;;5054305;28;20463;-68
2021/08/07 04:39:05;;;;;;;3.90;1.90;;;;;;;;;;5054302;28;20414;-69
2021/08/07 04:41:31;;;;;;;4.40;2.20;;;;;;;;;;5053009;28;20461;-69
2021/08/07 04:43:57;;;;;;;6.03;1.80;;;;;;;;;;5052972;28;20481;-69
2021/08/07 04:46:23;;;;;;;2.07;1.70;;;;;;;;;;5054260;28;20890;-69
2021/08/07 04:48:48;;;;;;;3.63;2.47;;;;;;;;;;5054225;28;20442;-69
2021/08/07 04:51:14;;;;;;;3.87;2.37;;;;;;;;;;5053621;28;20411;-68
2021/08/07 04:53:40;;;;;;;5.10;2.13;;;;;;;;;;5053953;28;20972;-69
2021/08/07 04:56:06;;;;;;;3.97;1.90;;;;;;;;;;5054215;28;20798;-68
2021/08/07 04:58:32;;;;;;;2.60;1.97;;;;;;;;;;5054053;28;20469;-69
2021/08/07 05:04:02;;;;;;;3.10;2.43;;;;;;;;;;5053844;28;20577;-67
2021/08/07 05:06:28;;;;;;;2.07;1.87;;;;;;;;;;5053880;28;20450;-68
2021/08/07 05:08:54;;;;;;;2.80;1.77;;;;;;;;;;5053775;28;20431;-69
2021/08/07 05:11:20;;;;;;;2.03;1.60;;;;;;;;;;5053932;28;20506;-71
2021/08/07 05:13:46;;;;;;;2.10;1.80;;;;;;;;;;5053971;28;20423;-70
2021/08/07 05:19:15;;;;;;;1.70;1.60;;;;;;;;;;5053526;28;20480;-69
2021/08/07 05:21:43;;;;;;;2.30;1.97;;;;;;;;;;5053579;28;20431;-70
2021/08/07 05:24:09;;;;;;;2.20;1.43;;;;;;;;;;5053592;28;20553;-67
2021/08/07 05:26:35;;;;;;;4.60;1.97;;;;;;;;;;5053474;28;20914;-68
2021/08/07 05:29:01;;;;;;;2.33;1.53;;;;;;;;;;5053600;28;20418;-68
2021/08/07 05:31:27;;;;;;;2.83;1.70;;;;;;;;;;5053340;28;20877;-69
2021/08/07 05:33:53;;;;;;;2.17;1.63;;;;;;;;;;5053344;28;20767;-69
2021/08/07 05:36:19;;;;;;;2.30;1.50;;;;;;;;;;5053117;28;20466;-70
2021/08/07 05:38:45;;;;;;;2.13;1.40;;;;;;;;;;5053402;28;20419;-69
2021/08/07 05:41:11;;;;;;;2.70;2.37;;;;;;;;;;5053031;28;20485;-70
2021/08/07 05:43:37;;;;;;;2.87;1.60;;;;;;;;;;5053133;28;20824;-69
2021/08/07 05:49:06;;;;;;;5.60;1.70;;;;;;;;;;5053069;28;20421;-68
2021/08/07 05:51:35;;;;;;;2.40;1.33;;;;;;;;;;5053086;28;20505;-70
2021/08/07 05:54:04;;;;;;;2.03;1.33;;;;;;;;;;5053096;28;20414;-70
2021/08/07 05:56:30;;;;;;;3.50;1.40;;;;;;;;;;5053030;28;20403;-69
2021/08/07 05:58:56;;;;;;;2.53;1.50;;;;;;;;;;5053031;28;20414;-70
2021/08/07 06:04:25;;;;;;;1.83;1.57;;;;;;;;;;5051663;28;20457;-68
2021/08/07 06:06:51;;;;;;;8.10;2.20;;;;;;;;;;5052764;28;20819;-70
2021/08/07 06:09:17;;;;;;;1.73;1.63;;;;;;;;;;5052116;28;20419;-70
2021/08/07 06:11:43;;;;;;;1.60;1.50;;;;;;;;;;5052217;28;20431;-69
2021/08/07 06:14:09;;;;;;;1.63;1.53;;;;;;;;;;5052417;28;20425;-69
2021/08/07 06:19:39;;;;;;;3.47;1.50;;;;;;;;;;5052341;28;20413;-69
2021/08/07 06:22:05;;;;;;;2.97;1.60;;;;;;;;;;5052288;28;20450;-70
2021/08/07 06:24:31;;;;;;;3.67;1.50;;;;;;;;;;5052452;28;20475;-69
2021/08/07 06:26:57;;;;;;;1.57;1.47;;;;;;;;;;5052233;28;20426;-69
2021/08/07 06:35:11;;;;;;;3.87;1.40;;;;;;;;;;5052188;28;20461;-69
2021/08/07 06:37:37;;;;;;;2.60;1.70;;;;;;;;;;5052076;28;20431;-69
2021/08/07 06:40:03;;;;;;;3.30;2.13;;;;;;;;;;5052323;28;20427;-68
2021/08/07 06:42:29;;;;;;;2.30;1.20;;;;;;;;;;5051896;28;20459;-69
2021/08/07 06:44:56;;;;;;;1.83;1.23;;;;;;;;;;5052117;28;20430;-69
2021/08/07 06:47:22;;;;;;;2.67;1.60;;;;;;;;;;5052168;28;20415;-68
2021/08/07 06:49:48;;;;;;;3.03;2.00;;;;;;;;;;5052334;28;20423;-69
2021/08/07 06:52:14;;;;;;;1.27;1.17;;;;;;;;;;5052076;28;20414;-70
2021/08/07 06:54:40;;;;;;;2.30;1.17;;;;;;;;;;5051950;28;20438;-69
2021/08/07 06:57:06;;;;;;;3.00;1.50;;;;;;;;;;5050724;28;20465;-69
2021/08/07 06:59:32;;;;;;;2.30;1.43;;;;;;;;;;5051906;28;20419;-69
2021/08/07 07:05:02;;;;;;;2.40;1.30;;;;;;;;;;5052266;28;20421;-69
2021/08/07 07:07:28;;;;;;;4.83;2.00;;;;;;;;;;5052053;28;20419;-69
2021/08/07 07:09:54;;;;;;;1.97;1.30;;;;;;;;;;5052130;28;20517;-69
2021/08/07 07:12:20;;;;;;;2.40;1.30;;;;;;;;;;5050740;28;20446;-69
2021/08/07 07:14:46;;;;;;;2.40;1.30;;;;;;;;;;5053358;28;20419;-69
2021/08/07 07:17:12;;;;;;;3.20;1.27;;;;;;;;;;5055795;28;20469;-71
2021/08/07 07:19:38;;;;;;;2.00;1.03;;;;;;;;;;5055980;28;20419;-68
2021/08/07 07:22:05;;;;;;;1.40;1.00;;;;;;;;;;5055983;28;20815;-69
2021/08/07 07:24:31;;;;;;;1.77;1.40;;;;;;;;;;5055883;28;20930;-67
2021/08/07 07:26:57;;;;;;;1.87;0.90;;;;;;;;;;5055940;28;20808;-68
2021/08/07 07:29:23;;;;;;;2.93;1.40;;;;;;;;;;5055230;28;20410;-69
2021/08/07 07:34:52;;;;;;;2.13;1.17;;;;;;;;;;5055172;28;20515;-70
2021/08/07 07:37:18;;;;;;;3.27;2.23;;;;;;;;;;5054086;28;20488;-69
2021/08/07 07:39:44;;;;;;;1.63;1.40;;;;;;;;;;5055136;28;20909;-68
2021/08/07 07:42:11;;;;;;;2.00;1.30;;;;;;;;;;5054942;28;20419;-70
2021/08/07 07:44:37;;;;;;;2.37;1.20;;;;;;;;;;5055040;28;20481;-69
2021/08/07 07:50:06;;;;;;;2.97;1.10;;;;;;;;;;5054827;28;20955;-69
2021/08/07 07:52:33;;;;;;;1.77;1.23;;;;;;;;;;5054891;28;20500;-69
2021/08/07 07:55:00;;;;;;;2.97;1.33;;;;;;;;;;5054794;28;20414;-69
2021/08/07 07:57:26;;;;;;;3.00;1.10;;;;;;;;;;5054995;28;20411;-69
2021/08/07 07:59:52;;;;;;;1.40;1.17;;;;;;;;;;5054726;28;20419;-69
2021/08/07 08:05:22;;;;;;;1.33;1.23;;;;;;;;;;5054674;28;20979;-70
2021/08/07 08:07:47;;;;;;;1.87;1.13;;;;;;;;;;5054688;28;20766;-69
2021/08/07 08:10:15;;;;;;;1.67;1.10;;;;;;;;;;5054987;28;20399;-70
2021/08/07 08:12:41;;;;;;;2.70;1.20;;;;;;;;;;5054355;28;20410;-70
2021/08/07 08:15:07;;;;;;;1.47;1.20;;;;;;;;;;5053889;28;20403;-69
2021/08/07 08:20:37;;;;;;;2.23;1.30;;;;;;;;;;5054187;28;20410;-69
2021/08/07 08:23:03;;;;;;;4.00;1.87;;;;;;;;;;5053931;28;20474;-69
2021/08/07 08:25:29;;;;;;;2.67;0.87;;;;;;;;;;5054195;28;20836;-69
2021/08/07 08:27:55;;;;;;;2.27;1.10;;;;;;;;;;5053959;28;20419;-69
2021/08/07 08:30:21;;;;;;;2.67;1.37;;;;;;;;;;5053815;28;20453;-69
2021/08/07 08:32:47;;;;;;;2.37;1.37;;;;;;;;;;5052759;28;20427;-70
2021/08/07 08:35:13;;;;;;;3.33;1.40;;;;;;;;;;5053706;28;20961;-68
2021/08/07 08:37:39;;;;;;;1.57;1.40;;;;;;;;;;5053784;28;20427;-68
2021/08/07 08:40:05;;;;;;;1.80;1.03;;;;;;;;;;5053901;28;20407;-69
2021/08/07 08:42:31;;;;;;;4.77;1.20;;;;;;;;;;5053726;28;20458;-69
2021/08/07 08:44:57;;;;;;;1.53;1.03;;;;;;;;;;5050986;28;20430;-69
2021/08/07 08:50:27;;;;;;;1.77;1.33;;;;;;;;;;5053829;28;20426;-70
2021/08/07 08:52:56;;;;;;;3.03;1.30;;;;;;;;;;5053716;28;20565;-69
2021/08/07 08:55:22;;;;;;;1.37;0.97;;;;;;;;;;5053718;28;20761;-71
2021/08/07 08:57:48;;;;;;;2.10;1.20;;;;;;;;;;5053656;28;20424;-70
2021/08/07 09:00:14;;;;;;;2.17;1.60;;;;;;;;;;5050743;28;20410;-72
2021/08/07 09:05:44;;;;;;;3.60;1.80;;;;;;;;;;5052594;28;20755;-71
2021/08/07 09:08:10;;;;;;;3.20;1.47;;;;;;;;;;5052424;28;20423;-70
2021/08/07 09:10:36;;;;;;;1.33;1.00;;;;;;;;;;5052124;28;20454;-70
2021/08/07 09:13:04;;;;;;;2.00;1.10;;;;;;;;;;5052513;28;20756;-70
2021/08/07 09:15:30;;;;;;;2.47;1.27;;;;;;;;;;5052304;28;20416;-70
2021/08/07 09:21:09;;;;;;;1.67;1.27;;;;;;;;;;5052121;28;20773;-71
2021/08/07 09:23:35;;;;;;;2.60;1.43;;;;;;;;;;5052234;28;20466;-71
2021/08/07 09:26:20;;;;;;;3.43;1.20;;;;;;;;;;5052138;28;20925;-71
2021/08/07 09:28:48;;;;;;;1.67;1.47;;;;;;;;;;5052027;28;20407;-70
2021/08/07 09:31:14;;;;;;;2.97;1.50;;;;;;;;;;5052321;28;20422;-70
2021/08/07 09:33:40;;;;;;;2.00;1.30;;;;;;;;;;5052318;28;20498;-70
2021/08/07 09:36:06;;;;;;;1.47;1.37;;;;;;;;;;5051927;28;20521;-71
2021/08/07 09:38:32;;;;;;;3.33;1.37;;;;;;;;;;5052050;28;20489;-70
2021/08/07 09:41:02;;;;;;;1.90;1.60;;;;;;;;;;5052242;28;20433;-69
2021/08/07 09:43:28;;;;;;;2.20;1.40;;;;;;;;;;5051874;28;20470;-70
2021/08/07 09:52:01;;;;;;;1.60;1.20;;;;;;;;;;5051858;28;20437;-69
2021/08/07 09:54:35;;;;;;;4.00;3.33;;;;;;;;;;5051519;28;20421;-70
2021/08/07 09:57:01;;;;;;;3.97;1.70;;;;;;;;;;5052076;28;20403;-70
2021/08/07 09:59:29;;;;;;;3.90;1.60;;;;;;;;;;5051470;28;20461;-68
2021/08/07 10:01:56;;;;;;;1.60;1.43;;;;;;;;;;5051605;28;20909;-70
2021/08/07 10:04:22;;;;;;;5.43;1.60;;;;;;;;;;5051515;28;20462;-69
2021/08/07 10:06:50;;;;;;;2.17;1.43;;;;;;;;;;5051653;28;20400;-70
2021/08/07 10:09:30;;;;;;;2.70;1.73;;;;;;;;;;5051600;28;20510;-69
2021/08/07 10:12:01;;;;;;;2.40;1.50;;;;;;;;;;5050513;28;20411;-69
2021/08/07 10:14:27;;;;;;;1.33;1.17;;;;;;;;;;5051250;28;20426;-69
2021/08/07 10:16:53;;;;;;;1.40;1.23;;;;;;;;;;5051234;28;20908;-69
2021/08/07 10:19:20;;;;;;;3.20;1.50;;;;;;;;;;5051452;28;20422;-69
2021/08/07 10:21:47;;;;;;;3.93;1.80;;;;;;;;;;5051358;28;20411;-69
2021/08/07 10:24:13;;;;;;;2.70;1.80;;;;;;;;;;5050224;28;20474;-68
2021/08/07 10:26:41;;;;;;;4.03;1.90;;;;;;;;;;5049586;28;20927;-70
2021/08/07 10:29:07;;;;;;;3.70;1.77;;;;;;;;;;5051445;28;20504;-71
2021/08/07 10:31:34;;;;;;;1.50;1.40;;;;;;;;;;5051338;28;20893;-70
2021/08/07 10:34:04;;;;;;;4.40;1.80;;;;;;;;;;5051314;28;20461;-68
2021/08/07 10:36:30;;;;;;;5.67;2.67;;;;;;;;;;5050975;28;20474;-68
2021/08/07 10:38:57;;;;;;;3.53;1.60;;;;;;;;;;5048271;28;20497;-68
2021/08/07 10:41:27;;;;;;;4.70;2.23;;;;;;;;;;5051122;28;20472;-70
2021/08/07 10:43:54;;;;;;;3.37;1.87;;;;;;;;;;5051386;28;20477;-69
2021/08/07 10:46:20;;;;;;;3.33;2.60;;;;;;;;;;5051405;28;20954;-68
2021/08/07 10:51:49;;;;;;;2.20;2.00;;;;;;;;;;5055903;28;20490;-69
2021/08/07 10:54:15;;;;;;;3.87;1.70;;;;;;;;;;5055684;28;20422;-69
2021/08/07 10:56:42;;;;;;;3.97;2.07;;;;;;;;;;5055755;28;20415;-69
2021/08/07 10:59:11;;;;;;;2.67;2.00;;;;;;;;;;5055748;28;20411;-69
2021/08/07 11:01:51;;;;;;;2.50;2.30;;;;;;;;;;5055887;28;20815;-69
2021/08/07 11:04:30;;;;;;;3.00;1.80;;;;;;;;;;5055451;28;21042;-68
2021/08/07 11:06:58;;;;;;;2.83;1.93;;;;;;;;;;5055890;28;20783;-68
2021/08/07 11:09:35;;;;;;;7.27;2.40;;;;;;;;;;5055757;28;20414;-69
2021/08/07 11:12:07;;;;;;;3.17;2.40;;;;;;;;;;5055934;28;20425;-69
2021/08/07 11:14:36;;;;;;;4.10;2.33;;;;;;;;;;5055613;28;20415;-69
2021/08/07 11:17:05;;;;;;;4.33;2.30;;;;;;;;;;5055493;28;20613;-69
2021/08/07 11:19:48;;;;;;;4.77;2.47;;;;;;;;;;5055680;28;20604;-69
2021/08/07 11:22:14;;;;;;;2.80;2.47;;;;;;;;;;5055465;28;20804;-69
2021/08/07 11:24:49;;;;;;;2.67;2.23;;;;;;;;;;5055572;28;20419;-69
2021/08/07 11:27:15;;;;;;;5.17;3.23;;;;;;;;;;5055422;28;20406;-67
2021/08/07 11:30:00;;;;;;;3.60;2.80;;;;;;;;;;5055557;28;20458;-67
2021/08/07 11:32:26;;;;;;;2.37;2.17;;;;;;;;;;5055412;28;20399;-68
2021/08/07 11:34:52;;;;;;;2.70;2.50;;;;;;;;;;5055277;28;20460;-69
2021/08/07 11:37:20;;;;;;;5.17;2.13;;;;;;;;;;5055212;28;20403;-69
2021/08/07 11:40:04;;;;;;;4.67;2.63;;;;;;;;;;5055365;28;20423;-69
2021/08/07 11:42:43;;;;;;;2.70;2.10;;;;;;;;;;5055043;28;20749;-69
2021/08/07 11:45:10;;;;;;;3.70;2.33;;;;;;;;;;5055008;28;20415;-70
2021/08/07 11:47:43;;;;;;;2.83;1.87;;;;;;;;;;5054956;28;20407;-69
2021/08/07 11:50:09;;;;;;;3.30;2.30;;;;;;;;;;5055033;28;20465;-70
2021/08/07 11:52:35;;;;;;;2.90;2.70;;;;;;;;;;5054855;28;20400;-70
2021/08/07 11:55:02;;;;;;;3.10;2.10;;;;;;;;;;5055203;28;20422;-70
2021/08/07 11:57:28;;;;;;;3.23;2.27;;;;;;;;;;5053228;28;20449;-69
2021/08/07 11:59:54;;;;;;;4.70;2.77;;;;;;;;;;5054914;28;20850;-69
2021/08/07 12:02:20;;;;;;;3.10;2.50;;;;;;;;;;5053408;28;20871;-69
2021/08/07 12:05:06;;;;;;;4.07;2.67;;;;;;;;;;5054643;28;20776;-70
2021/08/07 12:07:32;;;;;;;2.93;2.20;;;;;;;;;;5054435;28;20473;-68
2021/08/07 12:10:05;;;;;;;5.90;3.27;;;;;;;;;;5053216;28;20439;-68
2021/08/07 12:12:32;;;;;;;3.10;2.70;;;;;;;;;;5054380;28;20743;-69
2021/08/07 12:15:05;;;;;;;2.70;2.47;;;;;;;;;;5054472;28;20417;-70
2021/08/07 12:17:31;;;;;;;4.70;2.10;;;;;;;;;;5054531;28;20415;-69
2021/08/07 12:20:01;;;;;;;4.30;2.03;;;;;;;;;;5054485;28;20898;-70
2021/08/07 12:22:27;;;;;;;2.17;1.97;;;;;;;;;;5054304;28;20494;-69
2021/08/07 12:25:07;;;;;;;2.13;1.93;;;;;;;;;;5054717;28;20430;-70
2021/08/07 12:27:34;;;;;;;2.40;2.20;;;;;;;;;;5053074;28;20488;-69
2021/08/07 12:30:06;;;;;;;2.60;1.70;;;;;;;;;;5052918;28;20407;-69
2021/08/07 12:32:32;;;;;;;2.87;1.83;;;;;;;;;;5053258;28;20412;-68
2021/08/07 12:34:57;;;;;;;3.37;1.73;;;;;;;;;;5053087;28;20581;-69
2021/08/07 12:37:23;;;;;;;2.43;2.23;;;;;;;;;;5053362;28;20451;-69
2021/08/07 12:39:53;;;;;;;2.60;2.00;;;;;;;;;;5053171;28;20545;-69
2021/08/07 12:42:22;;;;;;;6.83;1.97;;;;;;;;;;5051557;28;20446;-69
2021/08/07 12:44:58;;;;;;;3.00;2.80;;;;;;;;;;5051989;28;20435;-71
2021/08/07 12:53:44;;;;;;;2.13;1.77;;;;;;;;;;5052779;28;20560;-69
2021/08/07 12:56:10;;;;;;;2.27;1.90;;;;;;;;;;5051753;28;20442;-68
2021/08/07 12:58:37;;;;;;;2.40;2.20;;;;;;;;;;5052926;28;20439;-70
2021/08/07 13:01:12;;;;;;;3.00;2.40;;;;;;;;;;5052631;28;20438;-68
2021/08/07 13:03:51;;;;;;;2.83;2.50;;;;;;;;;;5052340;28;20474;-68
2021/08/07 13:06:17;;;;;;;4.70;2.20;;;;;;;;;;5052484;28;20419;-69
2021/08/07 13:08:43;;;;;;;2.80;2.60;;;;;;;;;;5052611;28;20964;-69
2021/08/07 13:11:21;;;;;;;3.20;2.37;;;;;;;;;;5052949;28;20457;-69
2021/08/07 13:13:51;;;;;;;4.10;2.20;;;;;;;;;;5052348;28;20427;-70
2021/08/07 13:16:36;;;;;;;6.23;2.40;;;;;;;;;;5052735;28;20414;-70
2021/08/07 13:19:14;;;;;;;2.60;2.00;;;;;;;;;;5052017;28;20414;-69
2021/08/07 13:21:40;;;;;;;2.10;1.90;;;;;;;;;;5052103;28;20865;-69
2021/08/07 13:24:24;;;;;;;2.30;2.10;;;;;;;;;;5050695;28;20804;-69
2021/08/07 13:26:50;;;;;;;3.80;2.10;;;;;;;;;;5052126;28;20464;-69
2021/08/07 13:29:20;;;;;;;1.87;1.70;;;;;;;;;;5050912;28;20926;-69
2021/08/07 13:31:47;;;;;;;4.60;1.93;;;;;;;;;;5052106;28;20422;-69
2021/08/07 13:34:13;;;;;;;4.63;2.00;;;;;;;;;;5051974;28;20412;-69
2021/08/07 13:36:39;;;;;;;1.73;1.63;;;;;;;;;;5050653;28;20489;-70
2021/08/07 13:39:04;;;;;;;2.30;1.80;;;;;;;;;;5051942;28;20423;-69
2021/08/07 13:41:30;;;;;;;1.50;1.40;;;;;;;;;;5052216;28;20955;-69
2021/08/07 13:43:56;;;;;;;2.23;1.83;;;;;;;;;;5050380;28;20486;-70
2021/08/07 13:46:22;;;;;;;2.83;1.83;;;;;;;;;;5051912;28;20473;-69
2021/08/07 13:48:48;;;;;;;1.70;1.60;;;;;;;;;;5050346;28;20818;-69
2021/08/07 13:51:14;;;;;;;1.90;1.73;;;;;;;;;;5052612;28;20490;-69
2021/08/07 13:53:40;;;;;;;2.10;1.60;;;;;;;;;;5052447;28;20826;-69
2021/08/07 13:56:06;;;;;;;2.87;1.67;;;;;;;;;;5052555;28;20411;-69
2021/08/07 13:58:32;;;;;;;3.90;1.70;;;;;;;;;;5052255;28;20431;-69
2021/08/07 14:00:58;;;;;;;5.23;1.80;;;;;;;;;;5052421;28;20426;-69
2021/08/07 14:03:24;;;;;;;1.70;1.60;;;;;;;;;;5052289;28;20466;-68
2021/08/07 14:05:51;;;;;;;2.40;1.83;;;;;;;;;;5052616;28;20736;-68
2021/08/07 14:08:17;;;;;;;2.10;1.90;;;;;;;;;;5052558;28;20423;-68
2021/08/07 14:10:43;;;;;;;2.50;1.70;;;;;;;;;;5052330;28;20410;-67
2021/08/07 14:13:09;;;;;;;2.00;1.80;;;;;;;;;;5052344;28;20407;-68
2021/08/07 14:15:35;;;;;;;2.97;1.70;;;;;;;;;;5052470;28;20415;-68
2021/08/07 14:18:04;;;;;;;2.90;1.53;;;;;;;;;;5052302;28;20407;-68
2021/08/07 14:23:34;;;;;;;2.23;1.90;;;;;;;;;;5051977;28;20465;-68
2021/08/07 14:26:00;;;;;;;1.50;1.40;;;;;;;;;;5054653;28;20910;-67
2021/08/07 14:28:26;;;;;;;3.83;1.97;;;;;;;;;;5056362;28;20419;-67
2021/08/07 14:30:52;;;;;;;5.23;2.10;;;;;;;;;;5056453;28;20421;-68
2021/08/07 14:33:18;;;;;;;2.63;1.30;;;;;;;;;;5056211;28;20498;-68
2021/08/07 14:38:47;;;;;;;4.00;1.87;;;;;;;;;;5056158;28;20489;-68
2021/08/07 14:41:13;;;;;;;2.70;1.60;;;;;;;;;;5056232;28;20825;-69
2021/08/07 14:43:40;;;;;;;2.00;1.23;;;;;;;;;;5056118;28;20466;-68
2021/08/07 14:46:06;;;;;;;2.07;1.87;;;;;;;;;;5056229;28;20403;-69
2021/08/07 14:48:32;;;;;;;4.43;2.20;;;;;;;;;;5056122;28;20453;-70
2021/08/07 14:54:02;;;;;;;4.20;2.60;;;;;;;;;;5054864;28;20402;-69
2021/08/07 14:56:28;;;;;;;2.27;2.07;;;;;;;;;;5055025;28;20881;-68
2021/08/07 14:58:54;;;;;;;3.13;2.50;;;;;;;;;;5055045;28;20410;-68
2021/08/07 15:01:20;;;;;;;2.93;2.00;;;;;;;;;;5055108;28;20407;-68
2021/08/07 15:03:46;;;;;;;3.47;2.77;;;;;;;;;;5054773;28;20805;-68
2021/08/07 15:09:15;;;;;;;2.20;1.70;;;;;;;;;;5054805;28;20429;-68
2021/08/07 15:11:41;;;;;;;2.73;2.13;;;;;;;;;;5054843;28;20415;-69
2021/08/07 15:14:07;;;;;;;2.30;2.10;;;;;;;;;;5054937;28;20537;-70
2021/08/07 15:16:33;;;;;;;4.40;2.40;;;;;;;;;;5054610;28;20484;-67
2021/08/07 15:18:59;;;;;;;2.60;2.30;;;;;;;;;;5054681;28;20920;-69
2021/08/07 15:21:25;;;;;;;1.97;1.57;;;;;;;;;;5054624;28;20414;-68
2021/08/07 15:23:51;;;;;;;2.90;2.10;;;;;;;;;;5054305;28;20900;-68
2021/08/07 15:26:17;;;;;;;1.90;1.70;;;;;;;;;;5054284;28;20407;-69
2021/08/07 15:28:44;;;;;;;2.30;1.30;;;;;;;;;;5052539;28;20421;-68
2021/08/07 15:31:10;;;;;;;3.13;1.73;;;;;;;;;;5054344;28;20473;-69
2021/08/07 15:33:36;;;;;;;2.40;1.53;;;;;;;;;;5054558;28;20454;-70
2021/08/07 15:39:06;;;;;;;2.30;1.23;;;;;;;;;;5054175;28;20421;-69
2021/08/07 15:41:32;;;;;;;1.67;1.23;;;;;;;;;;5052937;28;20435;-68
2021/08/07 15:43:58;;;;;;;3.20;1.40;;;;;;;;;;5052615;28;20532;-69
2021/08/07 15:46:24;;;;;;;1.87;1.30;;;;;;;;;;5053866;28;20407;-70
2021/08/07 15:48:50;;;;;;;3.37;1.10;;;;;;;;;;5052522;28;20445;-68
2021/08/07 15:54:19;;;;;;;2.20;1.80;;;;;;;;;;5052827;28;20997;-70
2021/08/07 15:56:45;;;;;;;1.90;1.27;;;;;;;;;;5053625;28;20422;-70
2021/08/07 15:59:11;;;;;;;1.30;1.20;;;;;;;;;;5053688;28;20762;-67
2021/08/07 16:01:38;;;;;;;2.20;1.63;;;;;;;;;;5053765;28;20419;-68
2021/08/07 16:04:04;;;;;;;1.63;1.30;;;;;;;;;;5053408;28;20489;-68
2021/08/07 16:09:34;;;;;;;1.53;1.43;;;;;;;;;;5052981;28;20401;-68
2021/08/07 16:12:00;;;;;;;2.27;1.17;;;;;;;;;;5053589;28;20411;-68
2021/08/07 16:14:26;;;;;;;2.00;1.10;;;;;;;;;;5053447;28;20873;-68
2021/08/07 16:16:52;;;;;;;1.80;1.43;;;;;;;;;;5053725;28;20419;-68
2021/08/07 16:19:18;;;;;;;1.50;1.20;;;;;;;;;;5053287;28;20422;-68
2021/08/07 16:24:47;;;;;;;1.57;1.17;;;;;;;;;;5053299;28;20445;-68
2021/08/07 16:27:13;;;;;;;4.43;1.17;;;;;;;;;;5053067;28;20411;-68
2021/08/07 16:29:40;;;;;;;1.50;1.20;;;;;;;;;;5052918;28;20423;-68
2021/08/07 16:32:06;;;;;;;1.97;1.33;;;;;;;;;;5052313;28;20460;-67
2021/08/07 16:34:32;;;;;;;1.10;1.00;;;;;;;;;;5052534;28;20411;-68
2021/08/07 16:40:01;;;;;;;3.87;1.83;;;;;;;;;;5052663;28;20741;-68
2021/08/07 16:42:27;;;;;;;1.17;1.00;;;;;;;;;;5052624;28;21032;-70
2021/08/07 16:44:53;;;;;;;1.20;1.10;;;;;;;;;;5052875;28;20480;-68
2021/08/07 16:47:20;;;;;;;1.70;1.60;;;;;;;;;;5051823;28;20419;-68
2021/08/07 16:49:46;;;;;;;2.10;1.37;;;;;;;;;;5052533;28;20510;-68
2021/08/07 16:52:12;;;;;;;3.20;1.43;;;;;;;;;;5052629;28;20458;-69